sensor_id;sensor_type;location;lat;lon;timestamp;temperature;humidity
25280;DHT22;13225;47.804;12.116;2022-07-30T00:00:06;17.10;99.90
25280;DHT22;13225;47.804;12.116;2022-07-30T00:02:33;17.10;99.90
25280;DHT22;13225;47.804;12.116;2022-07-30T00:04:58;17.10;99.90
25280;DHT22;13225;47.804;12.116;2022-07-30T00:07:24;17.10;99.90
25280;DHT22;13225;47.804;12.116;2022-07-30T00:09:50;17.10;99.90
25280;DHT22;13225;47.804;12.116;2022-07-30T00:12:16;17.10;99.90
25280;DHT22;13225;47.804;12.116;2022-07-30T00:14:42;17.20;99.90
25280;DHT22;13225;47.804;12.116;2022-07-30T00:17:07;17.10;99.90
25280;DHT22;13225;47.804;12.116;2022-07-30T00:19:34;17.20;99.90
25280;DHT22;13225;47.804;12.116;2022-07-30T00:22:00;17.10;99.90
25280;DHT22;13225;47.804;12.116;2022-07-30T00:24:26;17.10;99.90
25280;DHT22;13225;47.804;12.116;2022-07-30T00:26:51;17.10;99.90
25280;DHT22;13225;47.804;12.116;2022-07-30T00:29:17;17.10;99.90
25280;DHT22;13225;47.804;12.116;2022-07-30T00:31:43;17.00;99.90
25280;DHT22;13225;47.804;12.116;2022-07-30T00:34:09;17.10;99.90
25280;DHT22;13225;47.804;12.116;2022-07-30T00:36:37;17.10;99.90
25280;DHT22;13225;47.804;12.116;2022-07-30T00:39:03;17.00;99.90
25280;DHT22;13225;47.804;12.116;2022-07-30T00:41:29;17.00;99.90
25280;DHT22;13225;47.804;12.116;2022-07-30T00:43:55;17.00;99.90
25280;DHT22;13225;47.804;12.116;2022-07-30T00:46:21;17.10;99.90
25280;DHT22;13225;47.804;12.116;2022-07-30T00:48:47;17.20;99.90
25280;DHT22;13225;47.804;12.116;2022-07-30T00:51:12;17.10;99.90
25280;DHT22;13225;47.804;12.116;2022-07-30T00:53:39;17.00;99.90
25280;DHT22;13225;47.804;12.116;2022-07-30T00:56:05;17.10;99.90
25280;DHT22;13225;47.804;12.116;2022-07-30T00:58:31;17.00;99.90
25280;DHT22;13225;47.804;12.116;2022-07-30T01:00:57;17.00;99.90
25280;DHT22;13225;47.804;12.116;2022-07-30T01:03:23;17.10;99.90
25280;DHT22;13225;47.804;12.116;2022-07-30T01:05:49;17.00;99.90
25280;DHT22;13225;47.804;12.116;2022-07-30T01:08:15;17.00;99.90
25280;DHT22;13225;47.804;12.116;2022-07-30T01:10:41;17.00;99.90
25280;DHT22;13225;47.804;12.116;2022-07-30T01:13:07;16.90;99.90
25280;DHT22;13225;47.804;12.116;2022-07-30T01:15:34;17.00;99.90
25280;DHT22;13225;47.804;12.116;2022-07-30T01:18:04;17.00;99.90
25280;DHT22;13225;47.804;12.116;2022-07-30T01:20:35;17.00;99.90
25280;DHT22;13225;47.804;12.116;2022-07-30T01:23:26;17.10;99.90
25280;DHT22;13225;47.804;12.116;2022-07-30T01:25:58;17.10;99.90
25280;DHT22;13225;47.804;12.116;2022-07-30T01:28:29;17.10;99.90
25280;DHT22;13225;47.804;12.116;2022-07-30T01:30:57;17.00;99.90
25280;DHT22;13225;47.804;12.116;2022-07-30T01:33:24;16.90;99.90
25280;DHT22;13225;47.804;12.116;2022-07-30T01:35:51;17.00;99.90
25280;DHT22;13225;47.804;12.116;2022-07-30T01:38:21;17.00;99.90
25280;DHT22;13225;47.804;12.116;2022-07-30T01:40:51;17.00;99.90
25280;DHT22;13225;47.804;12.116;2022-07-30T01:43:20;16.90;99.90
25280;DHT22;13225;47.804;12.116;2022-07-30T01:45:47;17.00;99.90
25280;DHT22;13225;47.804;12.116;2022-07-30T01:48:17;17.00;99.90
25280;DHT22;13225;47.804;12.116;2022-07-30T01:50:45;16.90;99.90
25280;DHT22;13225;47.804;12.116;2022-07-30T01:53:18;16.90;99.90
25280;DHT22;13225;47.804;12.116;2022-07-30T01:55:45;16.90;99.90
25280;DHT22;13225;47.804;12.116;2022-07-30T01:58:16;16.90;99.90
25280;DHT22;13225;47.804;12.116;2022-07-30T02:00:45;16.90;99.90
25280;DHT22;13225;47.804;12.116;2022-07-30T02:03:13;16.90;99.90
25280;DHT22;13225;47.804;12.116;2022-07-30T02:05:41;16.90;99.90
25280;DHT22;13225;47.804;12.116;2022-07-30T02:08:18;17.00;99.90
25280;DHT22;13225;47.804;12.116;2022-07-30T02:11:07;16.90;99.90
25280;DHT22;13225;47.804;12.116;2022-07-30T02:14:01;17.00;99.90
25280;DHT22;13225;47.804;12.116;2022-07-30T02:16:30;16.90;99.90
25280;DHT22;13225;47.804;12.116;2022-07-30T02:19:16;17.00;99.90
25280;DHT22;13225;47.804;12.116;2022-07-30T02:21:48;16.90;99.90
25280;DHT22;13225;47.804;12.116;2022-07-30T02:24:20;16.90;99.90
25280;DHT22;13225;47.804;12.116;2022-07-30T02:26:52;16.80;99.90
25280;DHT22;13225;47.804;12.116;2022-07-30T02:29:21;16.80;99.90
25280;DHT22;13225;47.804;12.116;2022-07-30T02:31:49;16.80;99.90
25280;DHT22;13225;47.804;12.116;2022-07-30T02:34:18;16.80;99.90
25280;DHT22;13225;47.804;12.116;2022-07-30T02:36:46;16.80;99.90
25280;DHT22;13225;47.804;12.116;2022-07-30T02:39:13;16.70;99.90
25280;DHT22;13225;47.804;12.116;2022-07-30T02:41:42;16.80;99.90
25280;DHT22;13225;47.804;12.116;2022-07-30T02:44:09;16.70;99.90
25280;DHT22;13225;47.804;12.116;2022-07-30T02:46:37;16.70;99.90
25280;DHT22;13225;47.804;12.116;2022-07-30T02:49:04;16.80;99.90
25280;DHT22;13225;47.804;12.116;2022-07-30T02:51:32;16.80;99.90
25280;DHT22;13225;47.804;12.116;2022-07-30T02:53:59;16.80;99.90
25280;DHT22;13225;47.804;12.116;2022-07-30T02:56:28;16.80;99.90
25280;DHT22;13225;47.804;12.116;2022-07-30T02:58:56;16.70;99.90
25280;DHT22;13225;47.804;12.116;2022-07-30T03:01:23;16.80;99.90
25280;DHT22;13225;47.804;12.116;2022-07-30T03:03:50;16.70;99.90
25280;DHT22;13225;47.804;12.116;2022-07-30T03:06:17;16.80;99.90
25280;DHT22;13225;47.804;12.116;2022-07-30T03:08:45;16.70;99.90
25280;DHT22;13225;47.804;12.116;2022-07-30T03:11:12;16.70;99.90
25280;DHT22;13225;47.804;12.116;2022-07-30T03:13:38;16.80;99.90
25280;DHT22;13225;47.804;12.116;2022-07-30T03:16:08;16.70;99.90
25280;DHT22;13225;47.804;12.116;2022-07-30T03:18:36;16.70;99.90
25280;DHT22;13225;47.804;12.116;2022-07-30T03:21:05;16.70;99.90
25280;DHT22;13225;47.804;12.116;2022-07-30T03:23:33;16.70;99.90
25280;DHT22;13225;47.804;12.116;2022-07-30T03:26:02;16.70;99.90
25280;DHT22;13225;47.804;12.116;2022-07-30T03:28:35;16.60;99.90
25280;DHT22;13225;47.804;12.116;2022-07-30T03:31:01;16.70;99.90
25280;DHT22;13225;47.804;12.116;2022-07-30T03:33:29;16.70;99.90
25280;DHT22;13225;47.804;12.116;2022-07-30T03:35:56;16.70;99.90
25280;DHT22;13225;47.804;12.116;2022-07-30T03:38:23;16.70;99.90
25280;DHT22;13225;47.804;12.116;2022-07-30T03:40:50;16.80;99.90
25280;DHT22;13225;47.804;12.116;2022-07-30T03:43:16;16.80;99.90
25280;DHT22;13225;47.804;12.116;2022-07-30T03:45:43;16.80;99.90
25280;DHT22;13225;47.804;12.116;2022-07-30T03:48:11;16.80;99.90
25280;DHT22;13225;47.804;12.116;2022-07-30T03:50:40;16.80;99.90
25280;DHT22;13225;47.804;12.116;2022-07-30T03:53:08;16.80;99.90
25280;DHT22;13225;47.804;12.116;2022-07-30T03:55:34;16.80;99.90
25280;DHT22;13225;47.804;12.116;2022-07-30T03:58:00;16.80;99.90
25280;DHT22;13225;47.804;12.116;2022-07-30T04:00:27;16.90;99.90
25280;DHT22;13225;47.804;12.116;2022-07-30T04:02:53;16.90;99.90
25280;DHT22;13225;47.804;12.116;2022-07-30T04:05:19;16.90;99.90
25280;DHT22;13225;47.804;12.116;2022-07-30T04:07:45;16.90;99.90
25280;DHT22;13225;47.804;12.116;2022-07-30T04:10:12;16.90;99.90
25280;DHT22;13225;47.804;12.116;2022-07-30T04:12:38;17.00;99.90
25280;DHT22;13225;47.804;12.116;2022-07-30T04:15:04;16.90;99.90
25280;DHT22;13225;47.804;12.116;2022-07-30T04:17:48;16.90;99.90
25280;DHT22;13225;47.804;12.116;2022-07-30T04:20:30;16.90;99.90
25280;DHT22;13225;47.804;12.116;2022-07-30T04:22:58;16.90;99.90
25280;DHT22;13225;47.804;12.116;2022-07-30T04:25:24;17.00;99.90
25280;DHT22;13225;47.804;12.116;2022-07-30T04:27:51;17.00;99.90
25280;DHT22;13225;47.804;12.116;2022-07-30T04:30:17;17.00;99.90
25280;DHT22;13225;47.804;12.116;2022-07-30T04:32:43;16.90;99.90
25280;DHT22;13225;47.804;12.116;2022-07-30T04:35:09;17.00;99.90
25280;DHT22;13225;47.804;12.116;2022-07-30T04:37:35;17.10;99.90
25280;DHT22;13225;47.804;12.116;2022-07-30T04:40:00;17.10;99.90
25280;DHT22;13225;47.804;12.116;2022-07-30T04:42:27;17.20;99.90
25280;DHT22;13225;47.804;12.116;2022-07-30T04:44:54;17.30;99.90
25280;DHT22;13225;47.804;12.116;2022-07-30T04:47:21;17.30;99.90
25280;DHT22;13225;47.804;12.116;2022-07-30T04:49:48;17.30;99.90
25280;DHT22;13225;47.804;12.116;2022-07-30T04:52:15;17.30;99.90
25280;DHT22;13225;47.804;12.116;2022-07-30T04:54:49;17.40;99.90
25280;DHT22;13225;47.804;12.116;2022-07-30T04:57:17;17.40;99.90
25280;DHT22;13225;47.804;12.116;2022-07-30T04:59:44;17.40;99.90
25280;DHT22;13225;47.804;12.116;2022-07-30T05:02:11;17.40;99.90
25280;DHT22;13225;47.804;12.116;2022-07-30T05:04:38;17.40;99.90
25280;DHT22;13225;47.804;12.116;2022-07-30T05:07:06;17.40;99.90
25280;DHT22;13225;47.804;12.116;2022-07-30T05:09:32;17.40;99.90
25280;DHT22;13225;47.804;12.116;2022-07-30T05:11:59;17.40;99.90
25280;DHT22;13225;47.804;12.116;2022-07-30T05:14:25;17.50;99.90
25280;DHT22;13225;47.804;12.116;2022-07-30T05:16:52;17.50;99.90
25280;DHT22;13225;47.804;12.116;2022-07-30T05:19:19;17.60;99.90
25280;DHT22;13225;47.804;12.116;2022-07-30T05:21:45;17.60;99.90
25280;DHT22;13225;47.804;12.116;2022-07-30T05:24:12;17.60;99.90
25280;DHT22;13225;47.804;12.116;2022-07-30T05:26:38;17.60;99.90
25280;DHT22;13225;47.804;12.116;2022-07-30T05:29:05;17.60;99.90
25280;DHT22;13225;47.804;12.116;2022-07-30T05:31:31;17.60;99.90
25280;DHT22;13225;47.804;12.116;2022-07-30T05:33:57;17.60;99.90
25280;DHT22;13225;47.804;12.116;2022-07-30T05:36:23;17.60;99.90
25280;DHT22;13225;47.804;12.116;2022-07-30T05:38:49;17.60;99.90
25280;DHT22;13225;47.804;12.116;2022-07-30T05:41:15;17.60;99.90
25280;DHT22;13225;47.804;12.116;2022-07-30T05:43:41;17.60;99.90
25280;DHT22;13225;47.804;12.116;2022-07-30T05:46:07;17.60;99.90
25280;DHT22;13225;47.804;12.116;2022-07-30T05:48:33;17.60;99.90
25280;DHT22;13225;47.804;12.116;2022-07-30T05:51:04;17.60;99.90
25280;DHT22;13225;47.804;12.116;2022-07-30T05:53:30;17.60;99.90
25280;DHT22;13225;47.804;12.116;2022-07-30T05:55:56;17.90;99.90
25280;DHT22;13225;47.804;12.116;2022-07-30T05:58:22;17.80;99.90
25280;DHT22;13225;47.804;12.116;2022-07-30T06:00:48;17.90;99.90
25280;DHT22;13225;47.804;12.116;2022-07-30T06:03:14;17.90;99.90
25280;DHT22;13225;47.804;12.116;2022-07-30T06:05:40;17.90;99.90
25280;DHT22;13225;47.804;12.116;2022-07-30T06:08:07;18.00;99.90
25280;DHT22;13225;47.804;12.116;2022-07-30T06:10:33;18.00;99.90
25280;DHT22;13225;47.804;12.116;2022-07-30T06:12:59;18.20;99.90
25280;DHT22;13225;47.804;12.116;2022-07-30T06:15:25;18.10;99.90
25280;DHT22;13225;47.804;12.116;2022-07-30T06:17:51;18.20;99.90
25280;DHT22;13225;47.804;12.116;2022-07-30T06:20:18;18.40;99.90
25280;DHT22;13225;47.804;12.116;2022-07-30T06:22:45;18.30;99.90
25280;DHT22;13225;47.804;12.116;2022-07-30T06:25:11;18.50;99.90
25280;DHT22;13225;47.804;12.116;2022-07-30T06:27:38;18.50;99.90
25280;DHT22;13225;47.804;12.116;2022-07-30T06:30:06;18.70;99.90
25280;DHT22;13225;47.804;12.116;2022-07-30T06:32:33;19.00;99.90
25280;DHT22;13225;47.804;12.116;2022-07-30T06:34:59;18.90;99.90
25280;DHT22;13225;47.804;12.116;2022-07-30T06:37:25;19.20;99.90
25280;DHT22;13225;47.804;12.116;2022-07-30T06:39:51;19.30;99.90
25280;DHT22;13225;47.804;12.116;2022-07-30T06:42:17;19.40;99.90
25280;DHT22;13225;47.804;12.116;2022-07-30T06:44:43;19.10;99.90
25280;DHT22;13225;47.804;12.116;2022-07-30T06:47:09;19.20;99.90
25280;DHT22;13225;47.804;12.116;2022-07-30T06:49:36;19.10;99.90
25280;DHT22;13225;47.804;12.116;2022-07-30T06:52:03;19.10;99.90
25280;DHT22;13225;47.804;12.116;2022-07-30T06:54:29;18.90;99.90
25280;DHT22;13225;47.804;12.116;2022-07-30T06:56:55;19.00;99.90
25280;DHT22;13225;47.804;12.116;2022-07-30T06:59:22;19.00;99.90
25280;DHT22;13225;47.804;12.116;2022-07-30T07:01:48;19.10;99.90
25280;DHT22;13225;47.804;12.116;2022-07-30T07:04:14;19.10;99.90
25280;DHT22;13225;47.804;12.116;2022-07-30T07:06:41;19.20;99.90
25280;DHT22;13225;47.804;12.116;2022-07-30T07:09:06;19.50;99.90
25280;DHT22;13225;47.804;12.116;2022-07-30T07:11:32;19.60;99.90
25280;DHT22;13225;47.804;12.116;2022-07-30T07:13:58;19.70;99.90
25280;DHT22;13225;47.804;12.116;2022-07-30T07:16:24;19.80;99.90
25280;DHT22;13225;47.804;12.116;2022-07-30T07:18:50;19.80;99.90
25280;DHT22;13225;47.804;12.116;2022-07-30T07:21:17;19.80;99.90
25280;DHT22;13225;47.804;12.116;2022-07-30T07:23:43;19.90;99.90
25280;DHT22;13225;47.804;12.116;2022-07-30T07:26:10;19.80;99.90
25280;DHT22;13225;47.804;12.116;2022-07-30T07:28:36;19.80;99.90
25280;DHT22;13225;47.804;12.116;2022-07-30T07:31:02;19.80;99.90
25280;DHT22;13225;47.804;12.116;2022-07-30T07:33:28;19.80;99.90
25280;DHT22;13225;47.804;12.116;2022-07-30T07:35:54;20.00;99.90
25280;DHT22;13225;47.804;12.116;2022-07-30T07:38:20;20.00;99.90
25280;DHT22;13225;47.804;12.116;2022-07-30T07:40:46;19.90;99.90
25280;DHT22;13225;47.804;12.116;2022-07-30T07:43:13;19.80;99.90
25280;DHT22;13225;47.804;12.116;2022-07-30T07:45:42;19.60;99.90
25280;DHT22;13225;47.804;12.116;2022-07-30T07:48:08;19.70;99.90
25280;DHT22;13225;47.804;12.116;2022-07-30T07:50:34;19.70;99.90
25280;DHT22;13225;47.804;12.116;2022-07-30T07:53:00;19.80;99.90
25280;DHT22;13225;47.804;12.116;2022-07-30T07:55:26;20.00;99.90
25280;DHT22;13225;47.804;12.116;2022-07-30T07:57:52;20.00;99.90
25280;DHT22;13225;47.804;12.116;2022-07-30T08:00:18;20.10;99.90
25280;DHT22;13225;47.804;12.116;2022-07-30T08:02:45;20.20;99.90
25280;DHT22;13225;47.804;12.116;2022-07-30T08:05:11;20.40;99.90
25280;DHT22;13225;47.804;12.116;2022-07-30T08:07:40;20.50;99.90
25280;DHT22;13225;47.804;12.116;2022-07-30T08:10:07;20.30;99.90
25280;DHT22;13225;47.804;12.116;2022-07-30T08:12:34;20.10;99.90
25280;DHT22;13225;47.804;12.116;2022-07-30T08:15:00;19.90;99.90
25280;DHT22;13225;47.804;12.116;2022-07-30T08:17:27;20.00;99.90
25280;DHT22;13225;47.804;12.116;2022-07-30T08:19:57;19.90;99.90
25280;DHT22;13225;47.804;12.116;2022-07-30T08:22:24;19.90;99.90
25280;DHT22;13225;47.804;12.116;2022-07-30T08:24:49;20.00;99.90
25280;DHT22;13225;47.804;12.116;2022-07-30T08:27:16;20.20;99.90
25280;DHT22;13225;47.804;12.116;2022-07-30T08:29:42;20.20;99.90
25280;DHT22;13225;47.804;12.116;2022-07-30T08:32:08;20.40;99.90
25280;DHT22;13225;47.804;12.116;2022-07-30T08:34:33;20.50;99.90
25280;DHT22;13225;47.804;12.116;2022-07-30T08:36:59;20.60;99.90
25280;DHT22;13225;47.804;12.116;2022-07-30T08:39:25;20.50;99.90
25280;DHT22;13225;47.804;12.116;2022-07-30T08:41:51;20.50;99.90
25280;DHT22;13225;47.804;12.116;2022-07-30T08:44:17;20.80;99.90
25280;DHT22;13225;47.804;12.116;2022-07-30T08:46:45;20.80;99.90
25280;DHT22;13225;47.804;12.116;2022-07-30T08:49:12;20.70;99.90
25280;DHT22;13225;47.804;12.116;2022-07-30T08:51:38;20.70;99.90
25280;DHT22;13225;47.804;12.116;2022-07-30T08:54:05;20.90;99.90
25280;DHT22;13225;47.804;12.116;2022-07-30T08:56:32;21.00;99.90
25280;DHT22;13225;47.804;12.116;2022-07-30T08:59:02;20.90;99.90
25280;DHT22;13225;47.804;12.116;2022-07-30T09:01:28;21.10;99.90
25280;DHT22;13225;47.804;12.116;2022-07-30T09:03:54;21.20;99.90
25280;DHT22;13225;47.804;12.116;2022-07-30T09:06:20;21.20;99.90
25280;DHT22;13225;47.804;12.116;2022-07-30T09:08:46;21.40;99.90
25280;DHT22;13225;47.804;12.116;2022-07-30T09:11:12;21.30;99.90
25280;DHT22;13225;47.804;12.116;2022-07-30T09:13:40;21.50;99.90
25280;DHT22;13225;47.804;12.116;2022-07-30T09:16:07;21.40;99.90
25280;DHT22;13225;47.804;12.116;2022-07-30T09:18:42;21.70;99.90
25280;DHT22;13225;47.804;12.116;2022-07-30T09:21:26;22.00;99.90
25280;DHT22;13225;47.804;12.116;2022-07-30T09:26:23;21.90;99.90
25280;DHT22;13225;47.804;12.116;2022-07-30T09:28:49;21.90;99.90
25280;DHT22;13225;47.804;12.116;2022-07-30T09:31:16;22.20;99.90
25280;DHT22;13225;47.804;12.116;2022-07-30T09:33:44;22.50;99.90
25280;DHT22;13225;47.804;12.116;2022-07-30T09:36:13;22.20;99.90
25280;DHT22;13225;47.804;12.116;2022-07-30T09:41:12;22.50;99.90
25280;DHT22;13225;47.804;12.116;2022-07-30T09:43:43;22.40;99.90
25280;DHT22;13225;47.804;12.116;2022-07-30T09:46:10;22.50;99.90
25280;DHT22;13225;47.804;12.116;2022-07-30T09:48:36;22.50;99.90
25280;DHT22;13225;47.804;12.116;2022-07-30T09:51:02;22.50;99.90
25280;DHT22;13225;47.804;12.116;2022-07-30T09:53:28;22.60;99.90
25280;DHT22;13225;47.804;12.116;2022-07-30T09:55:56;22.70;99.90
25280;DHT22;13225;47.804;12.116;2022-07-30T09:58:22;22.80;99.90
25280;DHT22;13225;47.804;12.116;2022-07-30T10:00:55;22.90;99.90
25280;DHT22;13225;47.804;12.116;2022-07-30T10:03:24;23.10;99.90
25280;DHT22;13225;47.804;12.116;2022-07-30T10:05:53;23.20;99.90
25280;DHT22;13225;47.804;12.116;2022-07-30T10:08:36;23.20;99.90
25280;DHT22;13225;47.804;12.116;2022-07-30T10:11:02;23.20;99.90
25280;DHT22;13225;47.804;12.116;2022-07-30T10:13:29;23.40;99.90
25280;DHT22;13225;47.804;12.116;2022-07-30T10:18:24;23.20;99.90
25280;DHT22;13225;47.804;12.116;2022-07-30T10:20:50;23.40;99.90
25280;DHT22;13225;47.804;12.116;2022-07-30T10:23:16;23.30;99.90
25280;DHT22;13225;47.804;12.116;2022-07-30T10:25:44;23.30;99.90
25280;DHT22;13225;47.804;12.116;2022-07-30T10:28:11;23.40;99.90
25280;DHT22;13225;47.804;12.116;2022-07-30T10:30:37;23.60;99.90
25280;DHT22;13225;47.804;12.116;2022-07-30T10:33:04;23.60;99.90
25280;DHT22;13225;47.804;12.116;2022-07-30T10:35:32;23.30;99.90
25280;DHT22;13225;47.804;12.116;2022-07-30T10:37:58;23.20;99.90
25280;DHT22;13225;47.804;12.116;2022-07-30T10:40:32;23.30;99.90
25280;DHT22;13225;47.804;12.116;2022-07-30T10:48:32;23.80;99.90
25280;DHT22;13225;47.804;12.116;2022-07-30T10:50:59;23.80;99.90
25280;DHT22;13225;47.804;12.116;2022-07-30T10:53:51;23.70;99.90
25280;DHT22;13225;47.804;12.116;2022-07-30T10:56:23;23.90;99.90
25280;DHT22;13225;47.804;12.116;2022-07-30T10:59:09;24.00;99.90
25280;DHT22;13225;47.804;12.116;2022-07-30T11:04:21;23.70;99.90
25280;DHT22;13225;47.804;12.116;2022-07-30T11:06:49;23.50;99.90
25280;DHT22;13225;47.804;12.116;2022-07-30T11:12:04;23.00;99.90
25280;DHT22;13225;47.804;12.116;2022-07-30T11:17:18;23.80;99.90
25280;DHT22;13225;47.804;12.116;2022-07-30T11:22:36;24.10;99.90
25280;DHT22;13225;47.804;12.116;2022-07-30T11:27:57;25.00;99.90
25280;DHT22;13225;47.804;12.116;2022-07-30T11:32:55;25.00;99.90
25280;DHT22;13225;47.804;12.116;2022-07-30T11:35:27;25.10;99.90
25280;DHT22;13225;47.804;12.116;2022-07-30T11:40:29;25.10;99.90
25280;DHT22;13225;47.804;12.116;2022-07-30T11:43:32;24.80;99.90
25280;DHT22;13225;47.804;12.116;2022-07-30T11:46:18;24.60;99.90
25280;DHT22;13225;47.804;12.116;2022-07-30T11:48:59;24.40;99.90
25280;DHT22;13225;47.804;12.116;2022-07-30T11:51:25;25.00;99.90
25280;DHT22;13225;47.804;12.116;2022-07-30T11:54:02;25.50;99.90
25280;DHT22;13225;47.804;12.116;2022-07-30T11:56:28;26.20;99.90
25280;DHT22;13225;47.804;12.116;2022-07-30T11:59:04;26.20;99.90
25280;DHT22;13225;47.804;12.116;2022-07-30T12:01:31;25.70;99.90
25280;DHT22;13225;47.804;12.116;2022-07-30T12:04:04;25.00;99.90
25280;DHT22;13225;47.804;12.116;2022-07-30T12:06:30;24.70;99.90
25280;DHT22;13225;47.804;12.116;2022-07-30T12:08:58;24.20;99.90
25280;DHT22;13225;47.804;12.116;2022-07-30T12:11:30;24.10;99.90
25280;DHT22;13225;47.804;12.116;2022-07-30T12:13:58;24.10;99.90
25280;DHT22;13225;47.804;12.116;2022-07-30T12:16:26;24.20;99.90
25280;DHT22;13225;47.804;12.116;2022-07-30T12:18:53;24.40;99.90
25280;DHT22;13225;47.804;12.116;2022-07-30T12:21:19;24.90;99.90
25280;DHT22;13225;47.804;12.116;2022-07-30T12:23:56;24.20;99.90
25280;DHT22;13225;47.804;12.116;2022-07-30T12:26:30;24.20;99.90
25280;DHT22;13225;47.804;12.116;2022-07-30T12:28:58;25.10;99.90
25280;DHT22;13225;47.804;12.116;2022-07-30T12:31:26;25.40;99.90
25280;DHT22;13225;47.804;12.116;2022-07-30T12:33:52;26.00;99.90
25280;DHT22;13225;47.804;12.116;2022-07-30T12:36:32;25.80;99.90
25280;DHT22;13225;47.804;12.116;2022-07-30T12:39:00;26.50;99.90
25280;DHT22;13225;47.804;12.116;2022-07-30T12:41:46;26.60;99.90
25280;DHT22;13225;47.804;12.116;2022-07-30T12:44:39;26.00;99.90
25280;DHT22;13225;47.804;12.116;2022-07-30T12:47:17;26.10;98.90
25280;DHT22;13225;47.804;12.116;2022-07-30T12:49:44;26.50;98.80
25280;DHT22;13225;47.804;12.116;2022-07-30T12:55:13;25.50;95.90
25280;DHT22;13225;47.804;12.116;2022-07-30T12:57:53;25.40;97.00
25280;DHT22;13225;47.804;12.116;2022-07-30T13:00:19;25.30;97.70
25280;DHT22;13225;47.804;12.116;2022-07-30T13:02:45;24.90;96.80
25280;DHT22;13225;47.804;12.116;2022-07-30T13:05:12;24.70;97.50
25280;DHT22;13225;47.804;12.116;2022-07-30T13:07:57;24.60;97.50
25280;DHT22;13225;47.804;12.116;2022-07-30T13:10:24;24.80;98.50
25280;DHT22;13225;47.804;12.116;2022-07-30T13:12:50;24.90;98.10
25280;DHT22;13225;47.804;12.116;2022-07-30T13:15:20;24.60;99.30
25280;DHT22;13225;47.804;12.116;2022-07-30T13:17:47;24.50;98.30
25280;DHT22;13225;47.804;12.116;2022-07-30T13:20:15;24.40;99.10
25280;DHT22;13225;47.804;12.116;2022-07-30T13:22:41;24.30;98.70
25280;DHT22;13225;47.804;12.116;2022-07-30T13:25:08;24.30;98.60
25280;DHT22;13225;47.804;12.116;2022-07-30T13:27:34;24.00;99.80
25280;DHT22;13225;47.804;12.116;2022-07-30T13:30:01;24.10;99.90
25280;DHT22;13225;47.804;12.116;2022-07-30T13:32:26;23.80;99.90
25280;DHT22;13225;47.804;12.116;2022-07-30T13:34:53;23.60;99.90
25280;DHT22;13225;47.804;12.116;2022-07-30T13:37:19;22.90;99.90
25280;DHT22;13225;47.804;12.116;2022-07-30T13:39:44;22.30;99.90
25280;DHT22;13225;47.804;12.116;2022-07-30T13:42:10;22.40;99.90
25280;DHT22;13225;47.804;12.116;2022-07-30T13:44:36;23.20;99.90
25280;DHT22;13225;47.804;12.116;2022-07-30T13:47:02;23.90;99.90
25280;DHT22;13225;47.804;12.116;2022-07-30T13:49:28;24.00;99.90
25280;DHT22;13225;47.804;12.116;2022-07-30T13:51:54;23.50;99.90
25280;DHT22;13225;47.804;12.116;2022-07-30T13:54:20;23.30;99.90
25280;DHT22;13225;47.804;12.116;2022-07-30T13:56:48;22.70;99.90
25280;DHT22;13225;47.804;12.116;2022-07-30T13:59:14;22.50;99.90
25280;DHT22;13225;47.804;12.116;2022-07-30T14:01:39;22.20;99.90
25280;DHT22;13225;47.804;12.116;2022-07-30T14:04:05;22.20;99.90
25280;DHT22;13225;47.804;12.116;2022-07-30T14:06:34;22.60;99.90
25280;DHT22;13225;47.804;12.116;2022-07-30T14:09:00;22.20;99.90
25280;DHT22;13225;47.804;12.116;2022-07-30T14:11:26;22.20;99.90
25280;DHT22;13225;47.804;12.116;2022-07-30T14:13:51;22.40;99.90
25280;DHT22;13225;47.804;12.116;2022-07-30T14:16:17;23.40;99.90
25280;DHT22;13225;47.804;12.116;2022-07-30T14:18:44;24.60;99.90
25280;DHT22;13225;47.804;12.116;2022-07-30T14:21:10;25.40;99.90
25280;DHT22;13225;47.804;12.116;2022-07-30T14:23:36;25.90;99.90
25280;DHT22;13225;47.804;12.116;2022-07-30T14:26:01;26.80;99.90
25280;DHT22;13225;47.804;12.116;2022-07-30T14:28:27;27.40;99.90
25280;DHT22;13225;47.804;12.116;2022-07-30T14:30:53;27.30;99.90
25280;DHT22;13225;47.804;12.116;2022-07-30T14:33:20;26.90;99.90
25280;DHT22;13225;47.804;12.116;2022-07-30T14:35:46;26.00;99.90
25280;DHT22;13225;47.804;12.116;2022-07-30T14:38:12;26.60;99.90
25280;DHT22;13225;47.804;12.116;2022-07-30T14:40:37;27.40;99.90
25280;DHT22;13225;47.804;12.116;2022-07-30T14:43:03;28.20;99.90
25280;DHT22;13225;47.804;12.116;2022-07-30T14:45:29;28.30;97.40
25280;DHT22;13225;47.804;12.116;2022-07-30T14:47:55;28.50;95.90
25280;DHT22;13225;47.804;12.116;2022-07-30T14:50:21;28.80;95.80
25280;DHT22;13225;47.804;12.116;2022-07-30T14:52:46;28.90;94.60
25280;DHT22;13225;47.804;12.116;2022-07-30T14:55:13;29.30;93.30
25280;DHT22;13225;47.804;12.116;2022-07-30T14:57:39;29.30;90.10
25280;DHT22;13225;47.804;12.116;2022-07-30T15:00:06;29.20;90.70
25280;DHT22;13225;47.804;12.116;2022-07-30T15:02:34;29.00;90.40
25280;DHT22;13225;47.804;12.116;2022-07-30T15:04:59;28.20;91.00
25280;DHT22;13225;47.804;12.116;2022-07-30T15:07:25;28.10;91.30
25280;DHT22;13225;47.804;12.116;2022-07-30T15:09:52;29.00;88.90
25280;DHT22;13225;47.804;12.116;2022-07-30T15:12:18;29.80;86.30
25280;DHT22;13225;47.804;12.116;2022-07-30T15:14:44;29.70;84.20
25280;DHT22;13225;47.804;12.116;2022-07-30T15:17:12;29.10;84.70
25280;DHT22;13225;47.804;12.116;2022-07-30T15:19:38;28.60;83.30
25280;DHT22;13225;47.804;12.116;2022-07-30T15:22:05;28.10;85.40
25280;DHT22;13225;47.804;12.116;2022-07-30T15:24:31;27.70;85.90
25280;DHT22;13225;47.804;12.116;2022-07-30T15:26:58;26.70;87.30
25280;DHT22;13225;47.804;12.116;2022-07-30T15:29:24;26.40;89.80
25280;DHT22;13225;47.804;12.116;2022-07-30T15:31:51;26.30;90.70
25280;DHT22;13225;47.804;12.116;2022-07-30T15:34:18;26.30;89.80
25280;DHT22;13225;47.804;12.116;2022-07-30T15:36:43;26.30;90.10
25280;DHT22;13225;47.804;12.116;2022-07-30T15:39:09;27.20;90.30
25280;DHT22;13225;47.804;12.116;2022-07-30T15:41:36;28.30;86.70
25280;DHT22;13225;47.804;12.116;2022-07-30T15:44:02;28.80;85.30
25280;DHT22;13225;47.804;12.116;2022-07-30T15:46:28;29.30;86.20
25280;DHT22;13225;47.804;12.116;2022-07-30T15:48:54;30.10;81.90
25280;DHT22;13225;47.804;12.116;2022-07-30T15:51:20;30.00;83.50
25280;DHT22;13225;47.804;12.116;2022-07-30T15:53:46;29.20;81.30